sensor_id;sensor_type;location;lat;lon;timestamp;P1;durP1;ratioP1;P2;durP2;ratioP2
59308;SDS011;48433;53.016;-2.260;2023-04-06T00:01:45;36.67;;;23.80;;
59308;SDS011;48433;53.016;-2.260;2023-04-06T00:04:14;32.47;;;21.75;;
59308;SDS011;48433;53.016;-2.260;2023-04-06T00:06:42;33.35;;;21.83;;
59308;SDS011;48433;53.016;-2.260;2023-04-06T00:09:10;32.08;;;19.48;;
59308;SDS011;48433;53.016;-2.260;2023-04-06T00:11:38;32.20;;;21.05;;
59308;SDS011;48433;53.016;-2.260;2023-04-06T00:14:06;32.03;;;20.98;;
59308;SDS011;48433;53.016;-2.260;2023-04-06T00:16:33;31.83;;;21.13;;
59308;SDS011;48433;53.016;-2.260;2023-04-06T00:19:01;30.70;;;20.92;;
59308;SDS011;48433;53.016;-2.260;2023-04-06T00:21:29;34.72;;;20.55;;
59308;SDS011;48433;53.016;-2.260;2023-04-06T00:23:58;31.45;;;20.23;;
59308;SDS011;48433;53.016;-2.260;2023-04-06T00:26:25;32.95;;;20.00;;
59308;SDS011;48433;53.016;-2.260;2023-04-06T00:28:54;28.92;;;19.48;;
59308;SDS011;48433;53.016;-2.260;2023-04-06T00:31:22;33.08;;;20.15;;
59308;SDS011;48433;53.016;-2.260;2023-04-06T00:33:50;31.38;;;19.27;;
59308;SDS011;48433;53.016;-2.260;2023-04-06T00:36:18;31.88;;;19.85;;
59308;SDS011;48433;53.016;-2.260;2023-04-06T00:38:46;26.73;;;17.25;;
59308;SDS011;48433;53.016;-2.260;2023-04-06T00:41:14;27.27;;;16.85;;
59308;SDS011;48433;53.016;-2.260;2023-04-06T00:43:41;25.05;;;16.50;;
59308;SDS011;48433;53.016;-2.260;2023-04-06T00:46:09;28.48;;;16.77;;
59308;SDS011;48433;53.016;-2.260;2023-04-06T00:48:37;26.85;;;16.95;;
59308;SDS011;48433;53.016;-2.260;2023-04-06T00:51:06;24.70;;;16.02;;
59308;SDS011;48433;53.016;-2.260;2023-04-06T00:53:33;27.15;;;17.67;;
59308;SDS011;48433;53.016;-2.260;2023-04-06T00:56:02;25.27;;;16.40;;
59308;SDS011;48433;53.016;-2.260;2023-04-06T00:58:38;26.55;;;16.08;;
59308;SDS011;48433;53.016;-2.260;2023-04-06T01:01:08;21.30;;;13.85;;
59308;SDS011;48433;53.016;-2.260;2023-04-06T01:03:36;19.90;;;12.95;;
59308;SDS011;48433;53.016;-2.260;2023-04-06T01:06:04;18.38;;;11.75;;
59308;SDS011;48433;53.016;-2.260;2023-04-06T01:08:37;21.50;;;12.10;;
59308;SDS011;48433;53.016;-2.260;2023-04-06T01:11:17;13.68;;;9.10;;
59308;SDS011;48433;53.016;-2.260;2023-04-06T01:13:46;15.25;;;9.68;;
59308;SDS011;48433;53.016;-2.260;2023-04-06T01:16:24;13.07;;;8.75;;
59308;SDS011;48433;53.016;-2.260;2023-04-06T01:19:08;11.50;;;7.70;;
59308;SDS011;48433;53.016;-2.260;2023-04-06T01:21:40;11.75;;;7.72;;
59308;SDS011;48433;53.016;-2.260;2023-04-06T01:24:24;10.88;;;7.45;;
59308;SDS011;48433;53.016;-2.260;2023-04-06T01:27:01;11.25;;;7.65;;
59308;SDS011;48433;53.016;-2.260;2023-04-06T01:29:40;10.25;;;7.18;;
59308;SDS011;48433;53.016;-2.260;2023-04-06T01:32:18;11.57;;;7.60;;
59308;SDS011;48433;53.016;-2.260;2023-04-06T01:34:49;10.48;;;6.85;;
59308;SDS011;48433;53.016;-2.260;2023-04-06T01:37:18;10.55;;;6.63;;
59308;SDS011;48433;53.016;-2.260;2023-04-06T01:39:46;10.57;;;7.38;;
59308;SDS011;48433;53.016;-2.260;2023-04-06T01:42:23;9.73;;;6.05;;
59308;SDS011;48433;53.016;-2.260;2023-04-06T01:44:51;11.65;;;7.15;;
59308;SDS011;48433;53.016;-2.260;2023-04-06T01:47:19;11.63;;;7.07;;
59308;SDS011;48433;53.016;-2.260;2023-04-06T01:49:47;11.15;;;6.85;;
59308;SDS011;48433;53.016;-2.260;2023-04-06T01:52:14;10.82;;;6.85;;
59308;SDS011;48433;53.016;-2.260;2023-04-06T01:54:50;11.07;;;6.82;;
59308;SDS011;48433;53.016;-2.260;2023-04-06T01:57:35;10.30;;;6.60;;
59308;SDS011;48433;53.016;-2.260;2023-04-06T02:00:13;10.68;;;6.85;;
59308;SDS011;48433;53.016;-2.260;2023-04-06T02:02:48;10.40;;;6.70;;
59308;SDS011;48433;53.016;-2.260;2023-04-06T02:05:22;9.63;;;5.97;;
59308;SDS011;48433;53.016;-2.260;2023-04-06T02:07:51;10.55;;;5.90;;
59308;SDS011;48433;53.016;-2.260;2023-04-06T02:10:27;10.15;;;6.28;;
59308;SDS011;48433;53.016;-2.260;2023-04-06T02:12:59;9.52;;;6.15;;
59308;SDS011;48433;53.016;-2.260;2023-04-06T02:15:27;8.68;;;5.40;;
59308;SDS011;48433;53.016;-2.260;2023-04-06T02:17:55;9.73;;;6.00;;
59308;SDS011;48433;53.016;-2.260;2023-04-06T02:20:24;10.80;;;5.75;;
59308;SDS011;48433;53.016;-2.260;2023-04-06T02:22:52;10.52;;;6.53;;
59308;SDS011;48433;53.016;-2.260;2023-04-06T02:25:20;9.00;;;5.68;;
59308;SDS011;48433;53.016;-2.260;2023-04-06T02:27:48;6.88;;;4.05;;
59308;SDS011;48433;53.016;-2.260;2023-04-06T02:30:15;8.05;;;4.20;;
59308;SDS011;48433;53.016;-2.260;2023-04-06T02:32:43;6.50;;;3.55;;
59308;SDS011;48433;53.016;-2.260;2023-04-06T02:35:12;7.05;;;3.53;;
59308;SDS011;48433;53.016;-2.260;2023-04-06T02:37:40;5.63;;;2.80;;
59308;SDS011;48433;53.016;-2.260;2023-04-06T02:40:08;6.85;;;3.13;;
59308;SDS011;48433;53.016;-2.260;2023-04-06T02:42:36;6.35;;;2.70;;
59308;SDS011;48433;53.016;-2.260;2023-04-06T02:45:05;5.65;;;2.50;;
59308;SDS011;48433;53.016;-2.260;2023-04-06T02:47:38;4.43;;;2.42;;
59308;SDS011;48433;53.016;-2.260;2023-04-06T02:50:06;5.22;;;2.60;;
59308;SDS011;48433;53.016;-2.260;2023-04-06T02:52:41;4.60;;;2.33;;
59308;SDS011;48433;53.016;-2.260;2023-04-06T02:55:10;5.78;;;2.75;;
59308;SDS011;48433;53.016;-2.260;2023-04-06T02:57:38;5.50;;;2.47;;
59308;SDS011;48433;53.016;-2.260;2023-04-06T03:00:06;5.82;;;3.10;;
59308;SDS011;48433;53.016;-2.260;2023-04-06T03:02:39;5.90;;;3.28;;
59308;SDS011;48433;53.016;-2.260;2023-04-06T03:05:11;8.57;;;3.45;;
59308;SDS011;48433;53.016;-2.260;2023-04-06T03:07:42;6.72;;;3.40;;
59308;SDS011;48433;53.016;-2.260;2023-04-06T03:10:17;6.05;;;3.33;;
59308;SDS011;48433;53.016;-2.260;2023-04-06T03:12:46;6.68;;;3.78;;
59308;SDS011;48433;53.016;-2.260;2023-04-06T03:15:21;8.50;;;4.43;;
59308;SDS011;48433;53.016;-2.260;2023-04-06T03:17:58;7.72;;;4.18;;
59308;SDS011;48433;53.016;-2.260;2023-04-06T03:20:35;8.35;;;4.85;;
59308;SDS011;48433;53.016;-2.260;2023-04-06T03:23:02;8.80;;;5.50;;
59308;SDS011;48433;53.016;-2.260;2023-04-06T03:25:35;8.82;;;5.32;;
59308;SDS011;48433;53.016;-2.260;2023-04-06T03:28:05;10.15;;;6.47;;
59308;SDS011;48433;53.016;-2.260;2023-04-06T03:30:38;9.18;;;6.00;;
59308;SDS011;48433;53.016;-2.260;2023-04-06T03:33:06;9.55;;;6.00;;
59308;SDS011;48433;53.016;-2.260;2023-04-06T03:35:42;11.60;;;7.72;;
59308;SDS011;48433;53.016;-2.260;2023-04-06T03:38:09;12.13;;;8.43;;
59308;SDS011;48433;53.016;-2.260;2023-04-06T03:40:37;11.05;;;7.68;;
59308;SDS011;48433;53.016;-2.260;2023-04-06T03:43:04;13.00;;;8.57;;
59308;SDS011;48433;53.016;-2.260;2023-04-06T03:45:35;12.75;;;8.68;;
59308;SDS011;48433;53.016;-2.260;2023-04-06T03:48:04;13.55;;;9.35;;
59308;SDS011;48433;53.016;-2.260;2023-04-06T03:50:35;14.52;;;9.60;;
59308;SDS011;48433;53.016;-2.260;2023-04-06T03:53:02;15.63;;;10.13;;
59308;SDS011;48433;53.016;-2.260;2023-04-06T03:55:30;14.85;;;11.10;;
59308;SDS011;48433;53.016;-2.260;2023-04-06T03:57:57;14.45;;;9.35;;
59308;SDS011;48433;53.016;-2.260;2023-04-06T04:00:25;15.38;;;10.63;;
59308;SDS011;48433;53.016;-2.260;2023-04-06T04:02:54;14.00;;;9.88;;
59308;SDS011;48433;53.016;-2.260;2023-04-06T04:05:22;16.15;;;11.48;;
59308;SDS011;48433;53.016;-2.260;2023-04-06T04:07:52;15.30;;;10.02;;
59308;SDS011;48433;53.016;-2.260;2023-04-06T04:10:24;16.00;;;10.93;;
59308;SDS011;48433;53.016;-2.260;2023-04-06T04:12:52;14.27;;;10.25;;
59308;SDS011;48433;53.016;-2.260;2023-04-06T04:15:19;11.23;;;7.60;;
59308;SDS011;48433;53.016;-2.260;2023-04-06T04:17:47;12.07;;;7.82;;
59308;SDS011;48433;53.016;-2.260;2023-04-06T04:20:16;8.52;;;5.63;;
59308;SDS011;48433;53.016;-2.260;2023-04-06T04:22:44;8.63;;;5.50;;
59308;SDS011;48433;53.016;-2.260;2023-04-06T04:25:12;7.95;;;4.72;;
59308;SDS011;48433;53.016;-2.260;2023-04-06T04:27:45;8.13;;;5.07;;
59308;SDS011;48433;53.016;-2.260;2023-04-06T04:30:13;6.88;;;4.65;;
59308;SDS011;48433;53.016;-2.260;2023-04-06T04:32:41;6.78;;;4.03;;
59308;SDS011;48433;53.016;-2.260;2023-04-06T04:35:10;7.82;;;3.85;;
59308;SDS011;48433;53.016;-2.260;2023-04-06T04:37:41;6.80;;;3.70;;
59308;SDS011;48433;53.016;-2.260;2023-04-06T04:40:10;6.75;;;4.05;;
59308;SDS011;48433;53.016;-2.260;2023-04-06T04:42:46;8.27;;;4.78;;
59308;SDS011;48433;53.016;-2.260;2023-04-06T04:45:24;7.43;;;4.20;;
59308;SDS011;48433;53.016;-2.260;2023-04-06T04:47:52;8.73;;;4.60;;
59308;SDS011;48433;53.016;-2.260;2023-04-06T04:50:23;8.35;;;4.53;;
59308;SDS011;48433;53.016;-2.260;2023-04-06T04:52:55;10.45;;;4.85;;
59308;SDS011;48433;53.016;-2.260;2023-04-06T04:55:25;9.18;;;5.03;;
59308;SDS011;48433;53.016;-2.260;2023-04-06T04:57:56;8.23;;;4.38;;
59308;SDS011;48433;53.016;-2.260;2023-04-06T05:00:36;10.52;;;5.22;;
59308;SDS011;48433;53.016;-2.260;2023-04-06T05:03:04;7.45;;;4.68;;
59308;SDS011;48433;53.016;-2.260;2023-04-06T05:05:36;10.63;;;5.80;;
59308;SDS011;48433;53.016;-2.260;2023-04-06T05:08:05;9.20;;;5.82;;
59308;SDS011;48433;53.016;-2.260;2023-04-06T05:10:42;10.80;;;6.05;;
59308;SDS011;48433;53.016;-2.260;2023-04-06T05:13:11;11.48;;;6.15;;
59308;SDS011;48433;53.016;-2.260;2023-04-06T05:15:39;11.43;;;6.35;;
59308;SDS011;48433;53.016;-2.260;2023-04-06T05:18:19;10.38;;;6.10;;
59308;SDS011;48433;53.016;-2.260;2023-04-06T05:20:46;13.35;;;7.30;;
59308;SDS011;48433;53.016;-2.260;2023-04-06T05:23:15;12.98;;;7.70;;
59308;SDS011;48433;53.016;-2.260;2023-04-06T05:25:43;15.25;;;8.48;;
59308;SDS011;48433;53.016;-2.260;2023-04-06T05:28:16;19.23;;;9.82;;
59308;SDS011;48433;53.016;-2.260;2023-04-06T05:30:45;20.70;;;10.65;;
59308;SDS011;48433;53.016;-2.260;2023-04-06T05:33:14;21.17;;;10.95;;
59308;SDS011;48433;53.016;-2.260;2023-04-06T05:36:07;22.13;;;12.93;;
59308;SDS011;48433;53.016;-2.260;2023-04-06T05:38:39;26.27;;;16.10;;
59308;SDS011;48433;53.016;-2.260;2023-04-06T05:41:27;31.55;;;17.30;;
59308;SDS011;48433;53.016;-2.260;2023-04-06T05:43:55;36.72;;;18.88;;
59308;SDS011;48433;53.016;-2.260;2023-04-06T05:46:24;33.80;;;18.30;;
59308;SDS011;48433;53.016;-2.260;2023-04-06T05:48:53;39.08;;;19.50;;
59308;SDS011;48433;53.016;-2.260;2023-04-06T05:51:24;43.13;;;23.35;;
59308;SDS011;48433;53.016;-2.260;2023-04-06T05:53:53;41.92;;;20.73;;
59308;SDS011;48433;53.016;-2.260;2023-04-06T05:56:21;34.83;;;20.42;;
59308;SDS011;48433;53.016;-2.260;2023-04-06T05:58:51;39.88;;;18.35;;
59308;SDS011;48433;53.016;-2.260;2023-04-06T06:01:25;39.40;;;17.73;;
59308;SDS011;48433;53.016;-2.260;2023-04-06T06:03:53;35.55;;;17.48;;
59308;SDS011;48433;53.016;-2.260;2023-04-06T06:06:24;38.90;;;18.02;;
59308;SDS011;48433;53.016;-2.260;2023-04-06T06:09:13;46.15;;;23.35;;
59308;SDS011;48433;53.016;-2.260;2023-04-06T06:11:48;51.75;;;24.42;;
59308;SDS011;48433;53.016;-2.260;2023-04-06T06:14:18;49.88;;;23.75;;
59308;SDS011;48433;53.016;-2.260;2023-04-06T06:16:47;52.35;;;22.85;;
59308;SDS011;48433;53.016;-2.260;2023-04-06T06:19:16;56.92;;;26.15;;
59308;SDS011;48433;53.016;-2.260;2023-04-06T06:21:44;54.58;;;24.63;;
59308;SDS011;48433;53.016;-2.260;2023-04-06T06:24:12;51.55;;;24.92;;
59308;SDS011;48433;53.016;-2.260;2023-04-06T06:26:40;50.63;;;27.40;;
59308;SDS011;48433;53.016;-2.260;2023-04-06T06:29:09;52.45;;;27.38;;
59308;SDS011;48433;53.016;-2.260;2023-04-06T06:31:38;41.58;;;24.73;;
59308;SDS011;48433;53.016;-2.260;2023-04-06T06:34:06;35.17;;;19.75;;
59308;SDS011;48433;53.016;-2.260;2023-04-06T06:36:36;37.70;;;21.25;;
59308;SDS011;48433;53.016;-2.260;2023-04-06T06:39:07;34.65;;;17.65;;
59308;SDS011;48433;53.016;-2.260;2023-04-06T06:41:36;28.25;;;13.68;;
59308;SDS011;48433;53.016;-2.260;2023-04-06T06:44:04;32.40;;;17.60;;
59308;SDS011;48433;53.016;-2.260;2023-04-06T06:46:34;28.63;;;16.13;;
59308;SDS011;48433;53.016;-2.260;2023-04-06T06:49:02;24.05;;;15.30;;
59308;SDS011;48433;53.016;-2.260;2023-04-06T06:51:30;25.13;;;14.50;;
59308;SDS011;48433;53.016;-2.260;2023-04-06T06:53:57;27.50;;;15.13;;
59308;SDS011;48433;53.016;-2.260;2023-04-06T06:56:25;20.95;;;12.82;;
59308;SDS011;48433;53.016;-2.260;2023-04-06T06:58:55;21.50;;;13.23;;
59308;SDS011;48433;53.016;-2.260;2023-04-06T07:01:23;21.15;;;11.88;;
59308;SDS011;48433;53.016;-2.260;2023-04-06T07:03:50;22.73;;;11.93;;
59308;SDS011;48433;53.016;-2.260;2023-04-06T07:06:18;25.80;;;14.00;;
59308;SDS011;48433;53.016;-2.260;2023-04-06T07:08:46;19.52;;;12.13;;
59308;SDS011;48433;53.016;-2.260;2023-04-06T07:11:14;19.13;;;11.27;;
59308;SDS011;48433;53.016;-2.260;2023-04-06T07:13:42;19.40;;;11.30;;
59308;SDS011;48433;53.016;-2.260;2023-04-06T07:16:10;16.00;;;10.75;;
59308;SDS011;48433;53.016;-2.260;2023-04-06T07:18:38;21.38;;;10.60;;
59308;SDS011;48433;53.016;-2.260;2023-04-06T07:21:05;17.38;;;9.70;;
59308;SDS011;48433;53.016;-2.260;2023-04-06T07:23:33;15.57;;;8.43;;
59308;SDS011;48433;53.016;-2.260;2023-04-06T07:26:01;14.45;;;8.90;;
59308;SDS011;48433;53.016;-2.260;2023-04-06T07:28:29;19.25;;;8.98;;
59308;SDS011;48433;53.016;-2.260;2023-04-06T07:30:57;15.88;;;8.73;;
59308;SDS011;48433;53.016;-2.260;2023-04-06T07:33:25;12.32;;;7.65;;
59308;SDS011;48433;53.016;-2.260;2023-04-06T07:35:57;13.65;;;6.80;;
59308;SDS011;48433;53.016;-2.260;2023-04-06T07:38:26;16.65;;;6.07;;
59308;SDS011;48433;53.016;-2.260;2023-04-06T07:40:54;16.30;;;5.85;;
59308;SDS011;48433;53.016;-2.260;2023-04-06T07:43:22;15.43;;;5.90;;
59308;SDS011;48433;53.016;-2.260;2023-04-06T07:45:49;13.55;;;5.18;;
59308;SDS011;48433;53.016;-2.260;2023-04-06T07:48:17;16.73;;;5.45;;
59308;SDS011;48433;53.016;-2.260;2023-04-06T07:50:45;16.33;;;5.07;;
59308;SDS011;48433;53.016;-2.260;2023-04-06T07:53:15;13.15;;;4.43;;
59308;SDS011;48433;53.016;-2.260;2023-04-06T07:55:44;14.82;;;5.95;;
59308;SDS011;48433;53.016;-2.260;2023-04-06T07:58:12;12.05;;;4.40;;
59308;SDS011;48433;53.016;-2.260;2023-04-06T08:00:39;12.30;;;3.78;;
59308;SDS011;48433;53.016;-2.260;2023-04-06T08:03:07;16.85;;;4.78;;
59308;SDS011;48433;53.016;-2.260;2023-04-06T08:05:35;12.65;;;3.58;;
59308;SDS011;48433;53.016;-2.260;2023-04-06T08:08:03;17.55;;;4.13;;
59308;SDS011;48433;53.016;-2.260;2023-04-06T08:10:30;7.45;;;2.90;;
59308;SDS011;48433;53.016;-2.260;2023-04-06T08:12:58;13.20;;;3.53;;
59308;SDS011;48433;53.016;-2.260;2023-04-06T08:15:26;17.15;;;3.30;;
59308;SDS011;48433;53.016;-2.260;2023-04-06T08:17:53;9.48;;;2.60;;
59308;SDS011;48433;53.016;-2.260;2023-04-06T08:20:24;10.82;;;2.55;;
59308;SDS011;48433;53.016;-2.260;2023-04-06T08:22:52;13.85;;;3.70;;
59308;SDS011;48433;53.016;-2.260;2023-04-06T08:25:19;12.23;;;3.05;;
59308;SDS011;48433;53.016;-2.260;2023-04-06T08:27:47;11.75;;;2.97;;
59308;SDS011;48433;53.016;-2.260;2023-04-06T08:30:15;11.43;;;2.78;;
59308;SDS011;48433;53.016;-2.260;2023-04-06T08:32:44;11.48;;;3.10;;
59308;SDS011;48433;53.016;-2.260;2023-04-06T08:35:12;19.42;;;3.33;;
59308;SDS011;48433;53.016;-2.260;2023-04-06T08:37:40;23.05;;;6.38;;
59308;SDS011;48433;53.016;-2.260;2023-04-06T08:40:08;34.85;;;8.88;;
59308;SDS011;48433;53.016;-2.260;2023-04-06T08:42:39;34.08;;;8.95;;
59308;SDS011;48433;53.016;-2.260;2023-04-06T08:45:10;73.43;;;15.45;;
59308;SDS011;48433;53.016;-2.260;2023-04-06T08:47:40;65.78;;;14.85;;
59308;SDS011;48433;53.016;-2.260;2023-04-06T08:50:09;62.55;;;18.00;;
59308;SDS011;48433;53.016;-2.260;2023-04-06T08:52:38;39.20;;;10.38;;
59308;SDS011;48433;53.016;-2.260;2023-04-06T08:55:07;53.60;;;13.85;;
59308;SDS011;48433;53.016;-2.260;2023-04-06T08:57:35;11.20;;;4.25;;
59308;SDS011;48433;53.016;-2.260;2023-04-06T09:00:04;23.65;;;7.22;;
59308;SDS011;48433;53.016;-2.260;2023-04-06T09:02:36;41.40;;;10.18;;
59308;SDS011;48433;53.016;-2.260;2023-04-06T09:05:08;18.05;;;6.45;;
59308;SDS011;48433;53.016;-2.260;2023-04-06T09:07:39;26.92;;;7.82;;
59308;SDS011;48433;53.016;-2.260;2023-04-06T09:10:07;25.13;;;9.32;;
59308;SDS011;48433;53.016;-2.260;2023-04-06T09:12:35;33.53;;;9.35;;
59308;SDS011;48433;53.016;-2.260;2023-04-06T09:15:03;20.15;;;7.38;;
59308;SDS011;48433;53.016;-2.260;2023-04-06T09:17:32;14.45;;;6.88;;
59308;SDS011;48433;53.016;-2.260;2023-04-06T09:20:01;59.33;;;16.63;;
59308;SDS011;48433;53.016;-2.260;2023-04-06T09:22:36;23.13;;;7.53;;
59308;SDS011;48433;53.016;-2.260;2023-04-06T09:25:05;64.85;;;12.18;;
59308;SDS011;48433;53.016;-2.260;2023-04-06T09:27:34;20.83;;;8.45;;
59308;SDS011;48433;53.016;-2.260;2023-04-06T09:30:09;74.68;;;18.70;;
59308;SDS011;48433;53.016;-2.260;2023-04-06T09:32:45;33.83;;;10.73;;
59308;SDS011;48433;53.016;-2.260;2023-04-06T09:35:14;14.70;;;4.20;;
59308;SDS011;48433;53.016;-2.260;2023-04-06T09:37:42;73.32;;;15.35;;
59308;SDS011;48433;53.016;-2.260;2023-04-06T09:40:11;24.80;;;8.80;;
59308;SDS011;48433;53.016;-2.260;2023-04-06T09:42:41;27.13;;;5.60;;
59308;SDS011;48433;53.016;-2.260;2023-04-06T09:45:10;12.55;;;3.67;;
59308;SDS011;48433;53.016;-2.260;2023-04-06T09:47:37;21.33;;;5.53;;
59308;SDS011;48433;53.016;-2.260;2023-04-06T09:50:10;43.72;;;11.13;;
59308;SDS011;48433;53.016;-2.260;2023-04-06T09:52:46;106.30;;;24.40;;
59308;SDS011;48433;53.016;-2.260;2023-04-06T09:55:34;25.48;;;6.13;;
59308;SDS011;48433;53.016;-2.260;2023-04-06T09:58:10;78.55;;;19.20;;
59308;SDS011;48433;53.016;-2.260;2023-04-06T10:00:47;36.25;;;8.70;;
59308;SDS011;48433;53.016;-2.260;2023-04-06T10:06:14;38.38;;;10.20;;
59308;SDS011;48433;53.016;-2.260;2023-04-06T10:08:45;16.50;;;4.03;;
59308;SDS011;48433;53.016;-2.260;2023-04-06T10:11:17;314.98;;;68.57;;
59308;SDS011;48433;53.016;-2.260;2023-04-06T10:13:46;22.15;;;6.70;;
59308;SDS011;48433;53.016;-2.260;2023-04-06T10:16:15;55.22;;;19.58;;
59308;SDS011;48433;53.016;-2.260;2023-04-06T10:18:49;15.40;;;4.70;;
59308;SDS011;48433;53.016;-2.260;2023-04-06T10:21:24;26.20;;;7.70;;
59308;SDS011;48433;53.016;-2.260;2023-04-06T10:23:57;29.48;;;7.93;;
59308;SDS011;48433;53.016;-2.260;2023-04-06T10:26:27;16.63;;;3.50;;
59308;SDS011;48433;53.016;-2.260;2023-04-06T10:29:02;12.77;;;3.20;;
59308;SDS011;48433;53.016;-2.260;2023-04-06T10:31:30;8.23;;;2.05;;
59308;SDS011;48433;53.016;-2.260;2023-04-06T10:34:00;14.43;;;3.08;;
59308;SDS011;48433;53.016;-2.260;2023-04-06T10:36:32;13.15;;;3.05;;
59308;SDS011;48433;53.016;-2.260;2023-04-06T10:39:02;11.00;;;2.10;;
59308;SDS011;48433;53.016;-2.260;2023-04-06T10:41:33;11.48;;;2.30;;
59308;SDS011;48433;53.016;-2.260;2023-04-06T10:44:01;9.88;;;2.20;;
59308;SDS011;48433;53.016;-2.260;2023-04-06T10:46:30;10.93;;;2.58;;
59308;SDS011;48433;53.016;-2.260;2023-04-06T10:49:09;12.98;;;1.92;;
59308;SDS011;48433;53.016;-2.260;2023-04-06T10:51:41;14.50;;;3.25;;
59308;SDS011;48433;53.016;-2.260;2023-04-06T10:54:08;8.95;;;2.05;;
59308;SDS011;48433;53.016;-2.260;2023-04-06T10:56:38;10.15;;;2.10;;
59308;SDS011;48433;53.016;-2.260;2023-04-06T10:59:06;9.63;;;2.90;;
59308;SDS011;48433;53.016;-2.260;2023-04-06T11:01:34;12.18;;;3.70;;
59308;SDS011;48433;53.016;-2.260;2023-04-06T11:04:02;10.05;;;2.83;;
59308;SDS011;48433;53.016;-2.260;2023-04-06T11:06:36;9.70;;;2.90;;
59308;SDS011;48433;53.016;-2.260;2023-04-06T11:09:06;12.00;;;2.72;;
59308;SDS011;48433;53.016;-2.260;2023-04-06T11:11:38;8.93;;;2.17;;
59308;SDS011;48433;53.016;-2.260;2023-04-06T11:14:09;7.13;;;1.92;;
59308;SDS011;48433;53.016;-2.260;2023-04-06T11:16:37;6.63;;;1.85;;
59308;SDS011;48433;53.016;-2.260;2023-04-06T11:19:05;7.65;;;1.40;;
59308;SDS011;48433;53.016;-2.260;2023-04-06T11:21:43;5.03;;;1.20;;
59308;SDS011;48433;53.016;-2.260;2023-04-06T11:24:21;11.13;;;1.60;;
59308;SDS011;48433;53.016;-2.260;2023-04-06T11:29:23;6.80;;;1.73;;
59308;SDS011;48433;53.016;-2.260;2023-04-06T11:34:28;7.75;;;2.30;;
59308;SDS011;48433;53.016;-2.260;2023-04-06T11:37:00;8.98;;;2.00;;
59308;SDS011;48433;53.016;-2.260;2023-04-06T11:39:37;11.38;;;1.98;;
59308;SDS011;48433;53.016;-2.260;2023-04-06T11:42:05;9.48;;;1.80;;
59308;SDS011;48433;53.016;-2.260;2023-04-06T11:47:06;10.38;;;2.28;;
59308;SDS011;48433;53.016;-2.260;2023-04-06T11:49:38;9.25;;;2.53;;
59308;SDS011;48433;53.016;-2.260;2023-04-06T11:52:24;8.73;;;2.10;;
59308;SDS011;48433;53.016;-2.260;2023-04-06T11:54:53;13.00;;;2.33;;
59308;SDS011;48433;53.016;-2.260;2023-04-06T11:57:21;8.80;;;1.67;;
59308;SDS011;48433;53.016;-2.260;2023-04-06T11:59:53;9.88;;;1.75;;
59308;SDS011;48433;53.016;-2.260;2023-04-06T12:02:20;11.25;;;2.00;;
59308;SDS011;48433;53.016;-2.260;2023-04-06T12:04:48;9.45;;;2.22;;
59308;SDS011;48433;53.016;-2.260;2023-04-06T12:07:16;12.05;;;2.50;;
59308;SDS011;48433;53.016;-2.260;2023-04-06T12:09:44;14.27;;;2.72;;
59308;SDS011;48433;53.016;-2.260;2023-04-06T12:12:11;12.75;;;2.35;;
59308;SDS011;48433;53.016;-2.260;2023-04-06T12:14:39;11.93;;;2.80;;
59308;SDS011;48433;53.016;-2.260;2023-04-06T12:17:06;13.57;;;3.25;;
59308;SDS011;48433;53.016;-2.260;2023-04-06T12:19:34;10.23;;;2.75;;
59308;SDS011;48433;53.016;-2.260;2023-04-06T12:22:02;11.18;;;2.38;;
59308;SDS011;48433;53.016;-2.260;2023-04-06T12:24:29;14.15;;;2.30;;
59308;SDS011;48433;53.016;-2.260;2023-04-06T12:26:57;13.43;;;2.17;;
59308;SDS011;48433;53.016;-2.260;2023-04-06T12:29:35;11.05;;;2.20;;
59308;SDS011;48433;53.016;-2.260;2023-04-06T12:32:03;13.15;;;2.70;;
59308;SDS011;48433;53.016;-2.260;2023-04-06T12:34:32;15.65;;;2.63;;
59308;SDS011;48433;53.016;-2.260;2023-04-06T12:36:59;12.98;;;2.85;;
59308;SDS011;48433;53.016;-2.260;2023-04-06T12:39:27;7.65;;;2.28;;
59308;SDS011;48433;53.016;-2.260;2023-04-06T12:41:55;9.75;;;2.50;;
59308;SDS011;48433;53.016;-2.260;2023-04-06T12:44:24;7.05;;;1.95;;
59308;SDS011;48433;53.016;-2.260;2023-04-06T12:46:53;5.95;;;2.20;;
59308;SDS011;48433;53.016;-2.260;2023-04-06T12:49:21;7.95;;;1.95;;
59308;SDS011;48433;53.016;-2.260;2023-04-06T12:51:48;8.65;;;1.58;;
59308;SDS011;48433;53.016;-2.260;2023-04-06T12:54:17;14.23;;;2.53;;
59308;SDS011;48433;53.016;-2.260;2023-04-06T12:56:44;11.35;;;2.83;;
59308;SDS011;48433;53.016;-2.260;2023-04-06T12:59:13;8.73;;;2.42;;
59308;SDS011;48433;53.016;-2.260;2023-04-06T13:01:40;11.60;;;2.38;;
59308;SDS011;48433;53.016;-2.260;2023-04-06T13:04:08;13.13;;;2.10;;
59308;SDS011;48433;53.016;-2.260;2023-04-06T13:06:35;8.50;;;2.20;;
59308;SDS011;48433;53.016;-2.260;2023-04-06T13:09:03;9.07;;;2.10;;
59308;SDS011;48433;53.016;-2.260;2023-04-06T13:11:32;8.82;;;1.70;;
59308;SDS011;48433;53.016;-2.260;2023-04-06T13:14:00;8.68;;;2.00;;
59308;SDS011;48433;53.016;-2.260;2023-04-06T13:16:27;7.05;;;1.67;;
59308;SDS011;48433;53.016;-2.260;2023-04-06T13:18:55;9.93;;;2.30;;
59308;SDS011;48433;53.016;-2.260;2023-04-06T13:21:23;10.07;;;1.60;;
59308;SDS011;48433;53.016;-2.260;2023-04-06T13:23:50;6.35;;;1.60;;
59308;SDS011;48433;53.016;-2.260;2023-04-06T13:26:18;7.47;;;1.85;;
59308;SDS011;48433;53.016;-2.260;2023-04-06T13:28:46;8.02;;;1.30;;
59308;SDS011;48433;53.016;-2.260;2023-04-06T13:31:14;5.22;;;1.58;;
59308;SDS011;48433;53.016;-2.260;2023-04-06T13:33:42;6.97;;;1.70;;
59308;SDS011;48433;53.016;-2.260;2023-04-06T13:36:10;8.50;;;1.63;;
59308;SDS011;48433;53.016;-2.260;2023-04-06T13:38:38;8.45;;;1.67;;
59308;SDS011;48433;53.016;-2.260;2023-04-06T13:41:06;8.48;;;1.90;;
59308;SDS011;48433;53.016;-2.260;2023-04-06T13:43:33;7.22;;;1.75;;
59308;SDS011;48433;53.016;-2.260;2023-04-06T13:46:01;8.10;;;1.63;;
59308;SDS011;48433;53.016;-2.260;2023-04-06T13:48:29;6.40;;;1.65;;
59308;SDS011;48433;53.016;-2.260;2023-04-06T13:50:57;9.52;;;1.65;;
59308;SDS011;48433;53.016;-2.260;2023-04-06T13:53:25;8.43;;;1.83;;
59308;SDS011;48433;53.016;-2.260;2023-04-06T13:55:55;9.60;;;2.33;;
59308;SDS011;48433;53.016;-2.260;2023-04-06T13:58:23;11.70;;;2.27;;
59308;SDS011;48433;53.016;-2.260;2023-04-06T14:00:50;7.10;;;1.88;;
59308;SDS011;48433;53.016;-2.260;2023-04-06T14:03:18;7.00;;;1.60;;
59308;SDS011;48433;53.016;-2.260;2023-04-06T14:05:46;7.10;;;1.50;;
59308;SDS011;48433;53.016;-2.260;2023-04-06T14:08:14;9.45;;;1.88;;
59308;SDS011;48433;53.016;-2.260;2023-04-06T14:10:41;5.45;;;1.50;;
59308;SDS011;48433;53.016;-2.260;2023-04-06T14:13:10;12.30;;;2.00;;
59308;SDS011;48433;53.016;-2.260;2023-04-06T14:15:38;9.27;;;2.08;;
59308;SDS011;48433;53.016;-2.260;2023-04-06T14:18:07;8.75;;;1.90;;
59308;SDS011;48433;53.016;-2.260;2023-04-06T14:20:35;12.85;;;1.52;;
59308;SDS011;48433;53.016;-2.260;2023-04-06T14:23:03;8.52;;;1.60;;
59308;SDS011;48433;53.016;-2.260;2023-04-06T14:25:31;5.55;;;1.50;;
59308;SDS011;48433;53.016;-2.260;2023-04-06T14:27:58;8.57;;;1.80;;
59308;SDS011;48433;53.016;-2.260;2023-04-06T14:30:26;7.05;;;1.75;;
59308;SDS011;48433;53.016;-2.260;2023-04-06T14:32:56;8.40;;;2.17;;
59308;SDS011;48433;53.016;-2.260;2023-04-06T14:35:25;9.57;;;2.10;;
59308;SDS011;48433;53.016;-2.260;2023-04-06T14:37:55;7.63;;;1.73;;
59308;SDS011;48433;53.016;-2.260;2023-04-06T14:40:25;9.98;;;2.25;;
59308;SDS011;48433;53.016;-2.260;2023-04-06T14:42:52;7.32;;;1.90;;
59308;SDS011;48433;53.016;-2.260;2023-04-06T14:45:21;5.28;;;1.60;;
59308;SDS011;48433;53.016;-2.260;2023-04-06T14:47:49;9.05;;;1.90;;